Time;durP1;ratioP1;P1;durP2;ratioP2;P2;SDS_P1;SDS_P2;PMS_P1;PMS_P2;Temp;Humidity;BMP_temperature;BMP_pressure;BME280_temperature;BME280_humidity;BME280_pressure;Samples;Min_cycle;Max_cycle;Signal;HPM_P1;HPM_P2
2022/10/24 00:00:42;;;;;;;5.35;5.05;;;;;;;13.32;100.00;100247.19;6049984;23;20006;-73
2022/10/24 00:03:10;;;;;;;5.28;4.93;;;;;;;13.38;100.00;100243.25;6053683;23;20138;-74
2022/10/24 00:05:40;;;;;;;5.70;5.30;;;;;;;13.40;100.00;100237.91;6040825;23;20035;-74
2022/10/24 00:08:07;;;;;;;6.97;5.85;;;;;;;13.25;100.00;100224.84;6077949;23;20097;-74
2022/10/24 00:10:35;;;;;;;14.63;5.85;;;;;;;13.39;100.00;100242.34;6043182;23;20417;-75
2022/10/24 00:13:03;;;;;;;5.15;4.80;;;;;;;13.00;100.00;100188.81;6076278;23;20022;-75
2022/10/24 00:15:29;;;;;;;5.63;5.30;;;;;;;13.03;100.00;100201.78;6048119;23;20083;-73
2022/10/24 00:17:55;;;;;;;14.75;5.28;;;;;;;13.33;100.00;100251.50;6077377;23;20026;-75
2022/10/24 00:20:22;;;;;;;5.55;5.15;;;;;;;12.94;100.00;100187.47;6025612;23;20106;-74
2022/10/24 00:22:49;;;;;;;6.53;5.65;;;;;;;12.62;100.00;100144.94;6068201;23;20071;-74
2022/10/24 00:25:16;;;;;;;7.00;5.45;;;;;;;13.45;100.00;100254.22;6043187;23;20014;-75
2022/10/24 00:27:42;;;;;;;5.45;5.15;;;;;;;13.43;100.00;100249.06;6048340;23;20084;-74
2022/10/24 00:30:09;;;;;;;6.50;5.88;;;;;;;12.77;100.00;100146.53;6043896;23;20037;-73
2022/10/24 00:32:36;;;;;;;8.15;5.47;;;;;;;13.36;100.00;100237.25;6070284;23;20444;-73
2022/10/24 00:35:03;;;;;;;7.15;5.43;;;;;;;13.30;100.00;100235.06;6045234;23;20038;-75
2022/10/24 00:37:30;;;;;;;8.07;5.57;;;;;;;13.24;100.00;100235.47;6077664;23;20034;-73
2022/10/24 00:39:56;;;;;;;6.55;6.05;;;;;;;12.97;100.00;100191.69;6042798;23;20163;-74
2022/10/24 00:42:22;;;;;;;5.50;5.20;;;;;;;12.74;100.00;100164.31;6049902;23;20025;-74
2022/10/24 00:44:51;;;;;;;6.93;5.25;;;;;;;13.11;100.00;100224.94;6049856;23;20023;-74
2022/10/24 00:47:21;;;;;;;5.95;5.10;;;;;;;13.04;100.00;100210.53;6079771;23;20014;-74
2022/10/24 00:50:13;;;;;;;4.95;4.72;;;;;;;13.22;100.00;100247.91;6043565;23;20037;-76
2022/10/24 00:52:43;;;;;;;8.88;5.45;;;;;;;13.28;100.00;100239.56;6060391;23;20010;-74
2022/10/24 00:55:10;;;;;;;5.05;4.85;;;;;;;13.31;100.00;100236.72;6036647;23;20102;-73
2022/10/24 00:57:44;;;;;;;4.97;4.68;;;;;;;13.32;100.00;100231.38;6071968;23;20006;-75
2022/10/24 01:00:16;;;;;;;5.30;5.00;;;;;;;13.34;100.00;100244.44;6045295;23;20038;-73
2022/10/24 01:02:43;;;;;;;5.57;5.05;;;;;;;13.32;100.00;100233.16;6074556;23;20017;-76
2022/10/24 01:05:10;;;;;;;8.82;5.63;;;;;;;13.36;100.00;100229.34;6045370;23;20034;-75
2022/10/24 01:07:36;;;;;;;10.23;4.97;;;;;;;13.34;100.00;100216.28;6074952;23;20545;-75
2022/10/24 01:10:22;;;;;;;6.00;5.43;;;;;;;13.36;100.00;100217.00;6052045;23;20096;-73
2022/10/24 01:13:09;;;;;;;5.45;4.95;;;;;;;13.21;100.00;100165.41;6040778;23;20086;-74
2022/10/24 01:15:46;;;;;;;6.07;5.57;;;;;;;13.26;100.00;100186.13;6017468;23;20018;-75
2022/10/24 01:18:36;;;;;;;5.57;5.15;;;;;;;13.50;100.00;100213.38;6071733;23;20022;-74
2022/10/24 01:21:11;;;;;;;6.40;5.80;;;;;;;13.23;100.00;100181.06;6047317;23;20039;-74
2022/10/24 01:24:02;;;;;;;5.38;5.00;;;;;;;13.44;100.00;100203.28;6074523;23;20639;-75
2022/10/24 01:26:38;;;;;;;5.20;4.90;;;;;;;13.49;100.00;100210.84;6028337;23;20115;-73
2022/10/24 01:29:17;;;;;;;5.40;5.10;;;;;;;13.22;100.00;100176.78;6074928;23;20041;-75
2022/10/24 01:31:59;;;;;;;10.43;5.32;;;;;;;13.32;100.00;100212.91;6036305;23;20038;-75
2022/10/24 01:34:55;;;;;;;5.35;5.05;;;;;;;13.11;100.00;100159.06;6079524;23;20086;-75
2022/10/24 01:37:50;;;;;;;5.88;5.35;;;;;;;13.40;100.00;100208.91;5991377;23;20015;-75
2022/10/24 01:40:22;;;;;;;5.43;4.90;;;;;;;13.01;100.00;100147.50;6018309;23;20018;-72
2022/10/24 01:42:52;;;;;;;5.75;5.22;;;;;;;13.14;100.00;100170.25;6055537;23;20030;-74
2022/10/24 01:45:27;;;;;;;5.60;5.20;;;;;;;13.36;100.00;100198.56;6079154;23;20010;-73
2022/10/24 01:47:57;;;;;;;5.25;4.95;;;;;;;13.35;100.00;100193.44;6052429;23;20072;-75
2022/10/24 01:50:25;;;;;;;5.53;5.15;;;;;;;13.33;100.00;100190.03;6080006;23;20087;-75
2022/10/24 01:52:54;;;;;;;5.07;4.88;;;;;;;13.25;100.00;100181.81;6046464;23;20476;-74
2022/10/24 01:55:21;;;;;;;11.38;5.60;;;;;;;12.87;100.00;100130.06;6073108;23;20870;-72
2022/10/24 01:57:47;;;;;;;9.23;6.20;;;;;;;12.53;100.00;100088.53;6046085;23;20025;-73
2022/10/24 02:00:21;;;;;;;6.07;5.57;;;;;;;13.25;100.00;100177.41;6082617;23;20029;-75
2022/10/24 02:02:54;;;;;;;5.88;5.38;;;;;;;13.22;100.00;100177.59;6051454;23;20036;-73
2022/10/24 02:05:26;;;;;;;5.60;5.30;;;;;;;13.17;100.00;100167.41;6081172;23;20030;-74
2022/10/24 02:07:56;;;;;;;5.47;5.15;;;;;;;12.78;100.00;100111.31;6048004;23;20029;-74
2022/10/24 02:10:34;;;;;;;9.02;6.88;;;;;;;13.10;100.00;100152.97;6076994;23;20034;-75
2022/10/24 02:13:07;;;;;;;8.35;5.18;;;;;;;13.22;100.00;100161.78;6056589;23;20443;-74
2022/10/24 02:15:35;;;;;;;;;;;;;;;13.24;100.00;100164.31;6079305;23;20526;-75
2022/10/24 02:18:02;;;;;;;5.82;5.22;;;;;;;12.64;100.00;100093.03;6048651;23;19911;-76
2022/10/24 02:21:02;;;;;;;13.15;5.28;;;;;;;13.11;100.00;100174.88;6060520;23;20030;-74
2022/10/24 02:23:36;;;;;;;5.70;5.40;;;;;;;13.19;100.00;100180.47;6031725;23;20030;-77
2022/10/24 02:26:06;;;;;;;5.15;4.90;;;;;;;13.20;100.00;100171.59;6085711;23;20084;-75
2022/10/24 02:28:39;;;;;;;5.40;5.10;;;;;;;13.27;100.00;100170.22;6066606;23;20677;-73
2022/10/24 02:31:11;;;;;;;5.25;4.95;;;;;;;13.26;100.00;100168.53;6073945;23;20026;-73
2022/10/24 02:33:39;;;;;;;5.28;5.03;;;;;;;13.15;100.00;100157.94;6050919;23;20018;-74
2022/10/24 02:36:09;;;;;;;6.13;5.68;;;;;;;12.95;100.00;100139.13;6046477;23;20026;-74
2022/10/24 02:38:39;;;;;;;5.50;5.10;;;;;;;13.06;100.00;100148.03;6080575;23;20663;-74
2022/10/24 02:41:13;;;;;;;6.22;5.45;;;;;;;12.80;100.00;100113.03;6032969;23;20034;-75
2022/10/24 02:43:42;;;;;;;5.53;5.03;;;;;;;13.12;100.00;100168.69;6074454;23;20037;-73
2022/10/24 02:46:10;;;;;;;5.95;5.45;;;;;;;13.05;100.00;100170.06;6047294;23;20022;-74
2022/10/24 02:48:42;;;;;;;4.90;4.70;;;;;;;13.11;100.00;100159.94;6071116;23;20026;-73
2022/10/24 02:51:09;;;;;;;5.40;4.90;;;;;;;12.74;100.00;100112.50;6055992;23;20022;-74
2022/10/24 02:53:36;;;;;;;5.32;4.95;;;;;;;13.02;100.00;100163.22;6081971;23;20484;-74
2022/10/24 02:56:02;;;;;;;5.88;5.35;;;;;;;12.74;100.00;100109.84;6053598;23;20413;-73
2022/10/24 02:58:29;;;;;;;5.40;5.10;;;;;;;13.06;100.00;100162.03;6075940;23;20452;-76
2022/10/24 03:00:55;;;;;;;5.65;5.25;;;;;;;13.06;100.00;100180.50;6046007;23;20882;-74
2022/10/24 03:03:21;;;;;;;5.07;4.78;;;;;;;13.17;100.00;100163.94;6079731;23;20658;-73
2022/10/24 03:05:48;;;;;;;5.70;5.35;;;;;;;13.19;100.00;100156.75;6052995;23;20034;-74
2022/10/24 03:08:14;;;;;;;5.97;5.43;;;;;;;12.83;100.00;100065.38;6071798;23;20014;-74
2022/10/24 03:10:41;;;;;;;5.82;5.43;;;;;;;13.29;100.00;100162.19;6016484;23;20042;-75
2022/10/24 03:13:07;;;;;;;5.25;4.70;;;;;;;13.00;100.00;100122.97;6074773;23;20587;-73
2022/10/24 03:15:33;;;;;;;5.25;4.88;;;;;;;13.04;100.00;100119.16;6050935;23;20094;-75
2022/10/24 03:18:00;;;;;;;5.43;5.05;;;;;;;13.01;100.00;100100.09;6070252;23;20018;-73
2022/10/24 03:20:26;;;;;;;5.80;5.40;;;;;;;13.08;100.00;100120.63;6040235;23;20018;-73
2022/10/24 03:22:53;;;;;;;5.38;4.97;;;;;;;13.18;100.00;100126.91;6074741;23;20052;-76
2022/10/24 03:25:19;;;;;;;6.97;6.57;;;;;;;13.29;100.00;100131.47;6049595;23;20023;-75
2022/10/24 03:27:45;;;;;;;6.95;6.03;;;;;;;13.38;100.00;100151.03;6066706;23;20021;-76
2022/10/24 03:30:12;;;;;;;6.18;5.68;;;;;;;13.50;100.00;100165.94;6054121;23;20078;-75
2022/10/24 03:32:39;;;;;;;11.18;5.47;;;;;;;13.30;100.00;100148.94;6047902;23;20018;-73
2022/10/24 03:35:06;;;;;;;5.30;5.00;;;;;;;13.34;100.00;100162.75;6047272;23;20030;-73
2022/10/24 03:37:38;;;;;;;;;;;;;;;13.40;100.00;100175.47;6075009;23;20617;-73
2022/10/24 03:40:05;;;;;;;5.63;5.25;;;;;;;13.33;100.00;100172.44;6049293;23;19914;-74
2022/10/24 03:42:31;;;;;;;8.07;5.25;;;;;;;13.07;100.00;100144.44;6080458;23;20569;-75
2022/10/24 03:44:58;;;;;;;5.60;5.10;;;;;;;13.08;100.00;100173.31;6050714;23;20042;-74
2022/10/24 03:47:24;;;;;;;7.18;5.28;;;;;;;13.17;100.00;100182.38;6052473;23;20459;-75
2022/10/24 03:49:50;;;;;;;5.10;4.85;;;;;;;12.86;100.00;100131.03;6052124;23;20075;-73
2022/10/24 03:52:17;;;;;;;8.50;5.18;;;;;;;13.15;100.00;100185.13;6070843;23;20022;-75
2022/10/24 03:54:43;;;;;;;5.20;4.90;;;;;;;13.12;100.00;100177.41;6048708;23;20045;-75
2022/10/24 03:57:10;;;;;;;7.80;5.00;;;;;;;12.96;100.00;100168.91;6086807;23;20029;-75
2022/10/24 03:59:36;;;;;;;4.95;4.75;;;;;;;13.06;100.00;100175.22;6051772;23;20025;-74
2022/10/24 04:02:04;;;;;;;10.80;4.68;;;;;;;12.95;100.00;100164.63;6070362;23;20026;-75
2022/10/24 04:04:31;;;;;;;5.05;4.78;;;;;;;13.04;100.00;100181.56;6053689;23;20112;-73
2022/10/24 04:06:59;;;;;;;5.65;5.10;;;;;;;12.78;100.00;100144.72;6073391;23;20022;-73
2022/10/24 04:09:27;;;;;;;5.47;5.05;;;;;;;13.05;100.00;100170.91;6029540;23;20038;-74
2022/10/24 04:11:53;;;;;;;5.32;5.00;;;;;;;12.97;100.00;100167.97;6077566;23;20582;-74
2022/10/24 04:14:20;;;;;;;5.55;5.07;;;;;;;13.02;100.00;100181.66;6053151;23;20038;-73
2022/10/24 04:16:46;;;;;;;5.22;4.93;;;;;;;12.48;100.00;100092.44;6069746;23;20042;-73
2022/10/24 04:19:16;;;;;;;5.07;4.80;;;;;;;12.60;100.00;100115.25;6042569;23;20084;-74
2022/10/24 04:21:43;;;;;;;5.43;5.13;;;;;;;12.90;100.00;100177.25;6076850;23;20416;-74
2022/10/24 04:24:10;;;;;;;6.70;5.20;;;;;;;12.70;100.00;100150.53;6047100;23;20018;-74
2022/10/24 04:26:36;;;;;;;6.03;5.60;;;;;;;12.24;100.00;100094.97;6065895;23;20523;-74
2022/10/24 04:29:03;;;;;;;6.03;5.53;;;;;;;12.26;100.00;100100.97;6054545;23;20022;-74
2022/10/24 04:31:29;;;;;;;5.40;5.05;;;;;;;12.27;100.00;100121.91;6049440;23;20026;-75
2022/10/24 04:33:56;;;;;;;14.98;5.78;;;;;;;12.68;100.00;100199.81;6042731;23;20032;-75
2022/10/24 04:36:22;;;;;;;5.03;4.72;;;;;;;12.05;100.00;100100.66;6056245;23;20027;-75
2022/10/24 04:38:48;;;;;;;5.32;5.03;;;;;;;12.50;100.00;100180.03;6045794;23;20030;-73
2022/10/24 04:41:15;;;;;;;5.18;4.82;;;;;;;12.31;100.00;100141.81;6078827;23;20034;-74
2022/10/24 04:43:41;;;;;;;5.15;4.85;;;;;;;12.42;100.00;100164.75;6043372;23;20577;-73
2022/10/24 04:46:08;;;;;;;5.03;4.63;;;;;;;12.66;100.00;100201.72;6079198;23;20159;-75
2022/10/24 04:48:34;;;;;;;5.55;5.15;;;;;;;12.07;100.00;100098.78;6057433;23;20439;-74
2022/10/24 04:51:00;;;;;;;5.53;5.20;;;;;;;12.02;100.00;100101.69;6077601;23;20110;-73
2022/10/24 04:53:27;;;;;;;6.47;5.15;;;;;;;12.06;100.00;100120.75;6048348;23;20821;-75
2022/10/24 04:55:53;;;;;;;4.72;4.53;;;;;;;12.13;100.00;100129.91;6047785;23;20018;-75
2022/10/24 04:58:19;;;;;;;5.10;4.70;;;;;;;12.55;100.00;100191.09;6037295;23;20118;-74
2022/10/24 05:00:48;;;;;;;5.78;5.38;;;;;;;12.51;100.00;100197.50;6076368;23;20461;-74
2022/10/24 05:03:16;;;;;;;7.38;5.03;;;;;;;12.02;100.00;100120.09;6048663;23;20021;-74
2022/10/24 05:05:43;;;;;;;5.55;5.25;;;;;;;12.13;100.00;100169.38;6073381;23;20487;-73
2022/10/24 05:08:09;;;;;;;5.50;5.20;;;;;;;12.42;100.00;100206.03;6047426;23;20038;-76
2022/10/24 05:10:36;;;;;;;5.47;4.95;;;;;;;12.46;100.00;100210.97;6048341;23;20022;-74
2022/10/24 05:13:02;;;;;;;5.30;5.00;;;;;;;12.27;100.00;100164.03;6056178;23;20455;-74
2022/10/24 05:15:29;;;;;;;5.85;5.45;;;;;;;12.18;100.00;100157.56;6086557;23;20045;-76
2022/10/24 05:17:57;;;;;;;5.43;5.00;;;;;;;12.55;100.00;100215.63;6049832;23;20014;-74
2022/10/24 05:20:23;;;;;;;5.55;5.05;;;;;;;12.27;100.00;100169.28;6074345;23;20022;-73
2022/10/24 05:22:50;;;;;;;5.97;5.22;;;;;;;12.16;100.00;100161.25;6056005;23;20029;-74
2022/10/24 05:25:17;;;;;;;5.00;4.70;;;;;;;12.32;100.00;100196.09;6090262;23;20532;-75
2022/10/24 05:27:44;;;;;;;5.00;4.80;;;;;;;11.84;100.00;100100.28;6044753;23;20507;-74
2022/10/24 05:30:10;;;;;;;8.20;4.78;;;;;;;11.95;100.00;100117.06;6078083;23;20038;-74
2022/10/24 05:32:37;;;;;;;5.13;4.85;;;;;;;12.48;100.00;100214.34;6040352;23;20027;-74
2022/10/24 05:35:05;;;;;;;5.82;5.50;;;;;;;12.02;100.00;100145.56;6079842;23;20108;-75
2022/10/24 05:37:32;;;;;;;10.05;4.80;;;;;;;12.28;100.00;100197.25;6046746;23;20022;-73
2022/10/24 05:39:58;;;;;;;5.57;5.07;;;;;;;12.51;100.00;100229.09;6076728;23;20034;-73
2022/10/24 05:42:25;;;;;;;5.13;4.82;;;;;;;11.90;100.00;100139.34;6048964;23;20027;-75
2022/10/24 05:44:51;;;;;;;8.32;5.22;;;;;;;12.18;100.00;100188.31;6082083;23;20026;-74
2022/10/24 05:47:17;;;;;;;4.80;4.60;;;;;;;12.33;100.00;100216.22;6051678;23;20026;-73
2022/10/24 05:49:44;;;;;;;5.07;4.85;;;;;;;12.17;100.00;100187.47;6077582;23;20013;-75
2022/10/24 05:52:10;;;;;;;4.80;4.60;;;;;;;12.11;100.00;100176.53;6046280;23;20026;-73
2022/10/24 05:54:36;;;;;;;4.65;4.45;;;;;;;12.38;100.00;100223.81;6080807;23;20689;-74
2022/10/24 05:57:23;;;;;;;5.47;5.10;;;;;;;12.06;100.00;100181.25;6044911;23;20018;-73
2022/10/24 05:59:49;;;;;;;6.22;5.65;;;;;;;11.35;100.00;100075.47;6080368;23;20486;-72
2022/10/24 06:02:18;;;;;;;5.40;5.10;;;;;;;12.23;100.00;100209.03;6056747;23;20030;-74
2022/10/24 06:04:45;;;;;;;4.95;4.53;;;;;;;12.50;100.00;100248.44;6059073;23;20045;-73
2022/10/24 06:07:11;;;;;;;5.38;5.07;;;;;;;12.14;100.00;100187.66;6081416;23;20637;-73
2022/10/24 06:09:40;;;;;;;5.32;4.80;;;;;;;12.20;100.00;100204.81;6051404;23;20451;-76
2022/10/24 06:12:08;;;;;;;5.15;4.85;;;;;;;12.48;100.00;100261.72;6085404;23;20033;-73
2022/10/24 06:14:37;;;;;;;5.25;4.85;;;;;;;12.45;100.00;100267.19;6028843;23;20034;-72
2022/10/24 06:17:05;;;;;;;4.88;4.40;;;;;;;12.36;100.00;100254.63;6057662;23;20593;-74
2022/10/24 06:19:31;;;;;;;5.20;4.85;;;;;;;12.21;100.00;100229.34;6053513;23;20530;-72
2022/10/24 06:21:58;;;;;;;4.75;4.50;;;;;;;12.19;100.00;100205.78;6077483;23;20091;-75
2022/10/24 06:24:24;;;;;;;4.70;4.50;;;;;;;12.55;100.00;100264.78;6063224;23;20017;-73
2022/10/24 06:26:50;;;;;;;4.90;4.70;;;;;;;12.45;100.00;100253.16;6061920;23;20036;-74
2022/10/24 06:29:17;;;;;;;4.95;4.75;;;;;;;12.45;100.00;100258.44;6051740;23;20014;-76
2022/10/24 06:31:43;;;;;;;4.82;4.63;;;;;;;12.39;100.00;100249.19;6090046;23;20356;-77
2022/10/24 06:34:09;;;;;;;5.05;4.75;;;;;;;12.57;100.00;100276.91;6053070;23;20034;-76
2022/10/24 06:36:36;;;;;;;4.80;4.60;;;;;;;12.42;100.00;100254.22;6059026;23;20152;-76
2022/10/24 06:39:02;;;;;;;5.00;4.68;;;;;;;12.26;100.00;100233.34;6053362;23;20022;-75
2022/10/24 06:41:29;;;;;;;4.78;4.57;;;;;;;12.34;100.00;100251.25;6081340;23;20117;-77
2022/10/24 06:43:56;;;;;;;5.60;5.10;;;;;;;12.34;100.00;100257.38;6065939;23;20037;-75
2022/10/24 06:46:23;;;;;;;4.90;4.60;;;;;;;12.32;100.00;100242.63;6069023;23;20091;-76
2022/10/24 06:48:55;;;;;;;4.80;4.50;;;;;;;12.69;100.00;100303.31;6065642;23;20268;-76
2022/10/24 06:51:23;;;;;;;4.88;4.68;;;;;;;12.71;100.00;100312.81;6061081;23;20431;-75
2022/10/24 06:53:49;;;;;;;5.15;4.85;;;;;;;11.83;100.00;100149.41;6048951;23;20046;-76
2022/10/24 06:56:17;;;;;;;5.20;4.80;;;;;;;11.88;100.00;100147.28;6079708;23;20141;-76
2022/10/24 06:58:43;;;;;;;5.47;5.03;;;;;;;12.17;100.00;100200.63;6052916;23;20033;-76
2022/10/24 07:01:16;;;;;;;4.93;4.72;;;;;;;12.87;100.00;100304.72;6047760;23;20045;-76
2022/10/24 07:03:44;;;;;;;5.20;4.90;;;;;;;12.93;100.00;100314.84;6024592;23;20668;-76
2022/10/24 07:06:16;;;;;;;4.90;4.70;;;;;;;12.64;100.00;100258.88;6079850;23;20022;-75
2022/10/24 07:08:43;;;;;;;10.15;4.72;;;;;;;12.81;100.00;100280.59;6046148;23;20359;-77
2022/10/24 07:11:10;;;;;;;4.85;4.60;;;;;;;13.21;100.00;100312.97;6072438;23;20031;-76
2022/10/24 07:13:37;;;;;;;4.95;4.63;;;;;;;12.90;100.00;100269.44;6046784;23;20083;-77
2022/10/24 07:16:04;;;;;;;4.90;4.70;;;;;;;13.40;100.00;100323.06;6048676;23;20026;-77
2022/10/24 07:18:30;;;;;;;5.00;4.70;;;;;;;13.53;100.00;100333.59;6021629;23;20080;-76
2022/10/24 07:21:04;;;;;;;6.25;4.70;;;;;;;13.67;100.00;100330.84;6079202;23;20014;-77
2022/10/24 07:23:32;;;;;;;6.35;4.82;;;;;;;12.33;100.00;100100.44;6049491;23;20022;-77
2022/10/24 07:26:05;;;;;;;4.70;4.50;;;;;;;13.08;100.00;100194.38;6078163;23;20029;-76
2022/10/24 07:28:33;;;;;;;6.00;4.78;;;;;;;14.09;100.00;100341.91;6047541;23;20038;-76
2022/10/24 07:30:59;;;;;;;4.60;4.40;;;;;;;14.11;100.00;100321.53;6069495;23;20064;-75
2022/10/24 07:33:26;;;;;;;4.60;4.40;;;;;;;14.33;100.00;100343.69;6016632;23;20031;-75
2022/10/24 07:35:53;;;;;;;5.38;5.00;;;;;;;14.02;100.00;100276.50;6076431;23;20080;-76
2022/10/24 07:38:19;;;;;;;4.90;4.70;;;;;;;14.36;100.00;100330.28;6043500;23;20125;-75
2022/10/24 07:40:46;;;;;;;6.70;5.10;;;;;;;14.51;100.00;100352.91;6078159;23;20240;-75
2022/10/24 07:43:13;;;;;;;4.88;4.60;;;;;;;14.53;100.00;100350.13;6047270;23;20388;-76
2022/10/24 07:45:41;;;;;;;15.93;5.20;;;;;;;14.48;100.00;100353.13;6079539;23;20041;-77
2022/10/24 07:48:12;;;;;;;;;;;;;;;14.44;100.00;100359.59;6045971;23;20020;-77
2022/10/24 07:50:44;;;;;;;6.60;4.90;;;;;;;13.75;100.00;100236.19;6076076;23;19922;-74
2022/10/24 07:53:12;;;;;;;5.22;4.93;;;;;;;14.44;100.00;100333.19;6045428;23;20010;-75
2022/10/24 07:55:40;;;;;;;5.00;4.80;;;;;;;14.66;100.00;100355.38;6084604;23;20040;-77
2022/10/24 07:58:07;;;;;;;4.95;4.65;;;;;;;14.74;100.00;100367.06;6051776;23;20022;-76
2022/10/24 08:00:34;;;;;;;5.03;4.72;;;;;;;14.54;100.00;100312.22;6062112;23;20752;-76
2022/10/24 08:03:02;;;;;;;4.88;4.65;;;;;;;14.82;100.00;100349.78;6047527;23;20030;-76
2022/10/24 08:05:28;;;;;;;5.13;4.80;;;;;;;15.11;100.00;100353.72;6087185;23;20029;-77
2022/10/24 08:07:55;;;;;;;5.25;4.72;;;;;;;15.13;100.00;100341.22;6060097;23;20095;-76
2022/10/24 08:10:41;;;;;;;5.88;5.38;;;;;;;15.39;100.00;100311.88;6070349;23;20091;-78
2022/10/24 08:13:08;;;;;;;4.93;4.72;;;;;;;15.59;98.08;100323.53;6059682;23;20080;-78
2022/10/24 08:15:38;;;;;;;4.63;4.43;;;;;;;15.86;95.98;100340.88;6059793;23;20096;-76
2022/10/24 08:18:05;;;;;;;5.78;5.20;;;;;;;15.86;95.10;100344.34;6046768;23;20026;-76
2022/10/24 08:20:31;;;;;;;5.80;5.35;;;;;;;15.27;95.51;100254.69;6092721;23;20052;-76
2022/10/24 08:22:58;;;;;;;5.18;4.85;;;;;;;14.92;96.31;100195.72;6033914;23;20039;-76
2022/10/24 08:25:24;;;;;;;5.30;4.90;;;;;;;15.65;95.40;100301.88;6049261;23;20041;-77
2022/10/24 08:27:50;;;;;;;5.53;4.97;;;;;;;15.47;95.23;100264.50;6047081;23;20006;-76
2022/10/24 08:30:19;;;;;;;6.72;6.22;;;;;;;15.77;93.42;100299.25;6080031;23;20014;-76
2022/10/24 08:32:45;;;;;;;5.20;4.90;;;;;;;15.71;93.56;100303.19;6045451;23;20019;-76
2022/10/24 08:35:17;;;;;;;5.38;4.90;;;;;;;15.94;95.26;100344.56;6082087;23;20029;-76
2022/10/24 08:37:43;;;;;;;5.65;5.18;;;;;;;15.77;94.70;100313.31;6065697;23;20014;-75
2022/10/24 08:40:16;;;;;;;5.20;4.90;;;;;;;15.46;94.29;100269.94;6054447;23;20026;-75
2022/10/24 08:42:42;;;;;;;;;;;;;;;16.02;94.51;100346.59;6060388;23;20018;-76
2022/10/24 08:45:21;;;;;;;5.07;4.88;;;;;;;16.06;93.71;100352.50;6092350;23;20330;-76
2022/10/24 08:47:55;;;;;;;7.50;5.40;;;;;;;16.17;91.60;100346.31;6062382;23;20018;-75
2022/10/24 08:50:33;;;;;;;5.13;4.90;;;;;;;16.21;92.74;100356.53;6088212;23;20101;-76
2022/10/24 08:53:05;;;;;;;5.35;4.95;;;;;;;15.97;91.37;100289.72;6052160;23;20033;-76
2022/10/24 08:55:48;;;;;;;5.00;4.80;;;;;;;16.17;90.88;100328.63;6087625;23;20026;-77
2022/10/24 08:58:30;;;;;;;5.07;4.82;;;;;;;16.33;89.82;100355.53;6054486;23;20021;-76
2022/10/24 09:01:01;;;;;;;5.38;5.07;;;;;;;16.42;89.74;100353.13;6058052;23;20050;-75
2022/10/24 09:03:33;;;;;;;5.00;4.80;;;;;;;16.44;89.48;100337.94;6055476;23;20026;-76
2022/10/24 09:06:25;;;;;;;5.20;5.00;;;;;;;16.14;89.37;100282.06;6082690;23;20610;-76
2022/10/24 09:09:22;;;;;;;6.97;5.13;;;;;;;16.55;89.32;100343.16;6042325;23;20030;-76
2022/10/24 09:11:52;;;;;;;5.10;4.80;;;;;;;16.73;87.31;100340.78;6076526;23;20537;-76
2022/10/24 09:14:25;;;;;;;5.20;4.80;;;;;;;16.60;87.17;100292.44;6058090;23;20015;-75
2022/10/24 09:16:57;;;;;;;13.82;6.05;;;;;;;16.75;87.78;100318.50;6055104;23;20089;-76
2022/10/24 09:19:26;;;;;;;5.28;4.88;;;;;;;16.54;85.83;100281.41;6058361;23;20022;-76
2022/10/24 09:21:55;;;;;;;5.10;4.90;;;;;;;16.97;86.25;100337.91;6084236;23;20010;-75
2022/10/24 09:24:43;;;;;;;5.00;4.72;;;;;;;16.95;85.45;100332.75;6052513;23;20031;-75
2022/10/24 09:27:16;;;;;;;5.20;4.70;;;;;;;16.73;84.79;100288.63;6077107;23;20771;-76
2022/10/24 09:29:43;;;;;;;5.50;5.20;;;;;;;16.91;84.64;100314.59;6054228;23;20025;-76
2022/10/24 09:32:22;;;;;;;5.47;4.93;;;;;;;17.03;84.58;100326.78;6072924;23;20079;-76
2022/10/24 09:34:49;;;;;;;7.03;4.90;;;;;;;16.58;84.51;100278.50;6053833;23;20068;-77
2022/10/24 09:37:34;;;;;;;5.38;4.97;;;;;;;16.86;84.60;100338.00;6069962;23;20026;-77
2022/10/24 09:40:21;;;;;;;5.22;5.00;;;;;;;16.85;85.47;100339.78;6034633;23;20022;-75
2022/10/24 09:43:13;;;;;;;6.57;4.88;;;;;;;16.73;86.54;100344.28;6083530;23;20023;-75
2022/10/24 09:45:47;;;;;;;4.90;4.70;;;;;;;16.20;87.14;100264.00;6057576;23;20022;-76
2022/10/24 09:48:31;;;;;;;5.10;4.80;;;;;;;16.71;86.33;100348.88;6073551;23;20574;-75
2022/10/24 09:50:59;;;;;;;5.05;4.82;;;;;;;16.54;86.03;100312.38;6057262;23;20594;-76
2022/10/24 09:53:32;;;;;;;5.53;5.10;;;;;;;16.86;85.89;100375.13;6076932;23;20456;-77
2022/10/24 09:56:05;;;;;;;5.10;4.90;;;;;;;16.93;84.53;100363.84;6047644;23;20022;-76
2022/10/24 09:58:32;;;;;;;5.25;4.90;;;;;;;16.83;84.67;100354.16;6079076;23;20036;-77
2022/10/24 10:01:05;;;;;;;5.35;5.05;;;;;;;16.83;84.87;100339.09;6057016;23;20031;-76
2022/10/24 10:03:34;;;;;;;5.47;4.95;;;;;;;16.94;82.89;100330.25;6079282;23;20336;-77
2022/10/24 10:06:12;;;;;;;5.28;4.93;;;;;;;17.17;82.44;100352.13;6049240;23;20034;-76
2022/10/24 10:08:39;;;;;;;9.70;5.55;;;;;;;16.31;82.99;100208.34;6074054;23;20419;-77
2022/10/24 10:11:07;;;;;;;4.95;4.70;;;;;;;17.34;81.92;100366.63;6053150;23;20038;-76
2022/10/24 10:13:44;;;;;;;5.25;4.93;;;;;;;17.37;83.25;100366.34;6046503;23;20451;-75
2022/10/24 10:16:24;;;;;;;5.85;5.43;;;;;;;17.22;83.23;100338.47;6063890;23;20038;-77
2022/10/24 10:19:01;;;;;;;7.82;5.10;;;;;;;17.53;82.96;100364.03;6056127;23;20040;-76
2022/10/24 10:22:00;;;;;;;6.25;5.80;;;;;;;17.39;82.54;100340.50;6084003;23;20039;-76
2022/10/24 10:24:39;;;;;;;5.35;5.10;;;;;;;17.43;82.32;100365.81;6062057;23;20014;-77
2022/10/24 10:27:33;;;;;;;5.85;5.20;;;;;;;17.12;83.60;100331.31;6060795;23;20028;-77
2022/10/24 10:30:10;;;;;;;5.07;4.80;;;;;;;17.31;83.71;100370.34;6041836;23;20029;-76
2022/10/24 10:33:14;;;;;;;5.35;4.85;;;;;;;17.00;83.30;100329.72;6063247;23;20018;-76
2022/10/24 10:35:48;;;;;;;6.28;5.70;;;;;;;17.07;83.63;100343.28;6045835;23;20007;-76
2022/10/24 10:38:43;;;;;;;5.35;4.93;;;;;;;17.37;83.10;100382.25;6078973;23;20012;-75
2022/10/24 10:41:21;;;;;;;6.00;5.00;;;;;;;17.47;82.57;100383.13;6056809;23;20030;-76
2022/10/24 10:44:09;;;;;;;6.70;5.75;;;;;;;16.98;80.90;100299.84;6072777;23;20029;-75
2022/10/24 10:46:48;;;;;;;5.18;4.97;;;;;;;17.64;81.60;100388.78;6037592;23;20081;-76
2022/10/24 10:49:28;;;;;;;6.50;6.05;;;;;;;17.64;82.07;100400.25;6044427;23;20019;-76
2022/10/24 10:52:22;;;;;;;5.93;5.50;;;;;;;17.94;81.37;100409.19;6086204;23;20018;-75
2022/10/24 10:55:07;;;;;;;6.38;5.78;;;;;;;18.18;80.25;100402.69;6051555;23;20083;-74
2022/10/24 10:57:58;;;;;;;6.43;5.55;;;;;;;18.18;79.06;100400.91;6082476;23;20041;-74
2022/10/24 11:00:40;;;;;;;6.18;5.65;;;;;;;17.71;79.07;100316.47;6035003;23;20100;-74
2022/10/24 11:03:22;;;;;;;8.17;5.90;;;;;;;17.81;78.69;100360.78;6086185;23;20014;-74
2022/10/24 11:06:17;;;;;;;6.22;5.68;;;;;;;18.16;78.96;100407.28;6059661;23;20088;-73
2022/10/24 11:09:05;;;;;;;5.35;5.05;;;;;;;18.11;78.30;100413.03;6067145;23;20037;-77
2022/10/24 11:11:41;;;;;;;5.35;5.03;;;;;;;17.96;78.21;100382.50;6064405;23;20080;-75
2022/10/24 11:14:37;;;;;;;6.65;5.90;;;;;;;18.24;78.63;100412.75;6088812;23;20025;-73
2022/10/24 11:17:13;;;;;;;5.50;5.10;;;;;;;18.30;79.14;100412.22;6048626;23;20048;-72
2022/10/24 11:20:08;;;;;;;5.53;5.22;;;;;;;18.15;78.85;100371.94;6079954;23;20029;-74
2022/10/24 11:22:42;;;;;;;5.32;5.00;;;;;;;17.87;77.95;100371.72;6032209;23;20119;-74
2022/10/24 11:25:37;;;;;;;5.20;5.00;;;;;;;18.09;80.07;100417.63;6070461;23;20027;-75
2022/10/24 11:28:24;;;;;;;5.40;5.10;;;;;;;17.93;78.92;100396.91;6041005;23;20030;-73
2022/10/24 11:30:58;;;;;;;7.30;5.20;;;;;;;17.81;80.32;100382.03;6072913;23;20088;-72
2022/10/24 11:33:30;;;;;;;9.45;5.43;;;;;;;17.86;80.73;100412.53;6051752;23;20935;-75
2022/10/24 11:36:00;;;;;;;5.32;5.03;;;;;;;17.89;81.03;100432.66;6076804;23;20018;-73
2022/10/24 11:38:31;;;;;;;5.35;5.05;;;;;;;17.87;78.68;100418.69;6047264;23;20509;-73